Time;durP1;ratioP1;P1;durP2;ratioP2;P2;SDS_P1;SDS_P2;PMS_P1;PMS_P2;Temp;Humidity;BMP_temperature;BMP_pressure;BME280_temperature;BME280_humidity;BME280_pressure;Samples;Min_cycle;Max_cycle;Signal;HPM_P1;HPM_P2
2023/05/03 00:02:09;;;;;;;4.90;1.35;;;;;;;14.49;58.81;100145.84;5057015;28;20087;-70
2023/05/03 00:04:35;;;;;;;4.20;1.50;;;;;;;14.49;58.84;100136.13;5066677;28;20029;-70
2023/05/03 00:07:01;;;;;;;5.10;1.25;;;;;;;14.45;58.89;100141.53;5058909;28;20029;-70
2023/05/03 00:09:26;;;;;;;4.13;1.38;;;;;;;14.43;58.98;100128.28;5066257;28;20040;-71
2023/05/03 00:11:52;;;;;;;5.23;1.50;;;;;;;14.42;58.87;100129.19;5040866;28;20477;-70
2023/05/03 00:14:18;;;;;;;11.45;3.13;;;;;;;14.44;58.81;100123.88;5057037;28;20055;-71
2023/05/03 00:16:43;;;;;;;6.77;1.90;;;;;;;14.41;59.05;100122.16;5051821;28;20123;-71
2023/05/03 00:19:09;;;;;;;5.83;1.80;;;;;;;14.38;58.92;100118.72;5056885;28;20063;-70
2023/05/03 00:21:34;;;;;;;6.73;1.60;;;;;;;14.35;58.95;100117.91;5056868;28;20275;-71
2023/05/03 00:24:00;;;;;;;4.63;1.50;;;;;;;14.34;58.91;100113.47;5067534;28;20023;-71
2023/05/03 00:26:27;;;;;;;5.67;1.60;;;;;;;14.32;59.13;100104.69;5058338;28;20481;-70
2023/05/03 00:28:52;;;;;;;7.37;1.93;;;;;;;14.28;59.30;100108.31;5038909;28;20812;-70
2023/05/03 00:31:18;;;;;;;9.82;2.92;;;;;;;14.26;59.15;100104.84;5056400;28;20103;-70
2023/05/03 00:33:44;;;;;;;7.37;2.13;;;;;;;14.24;59.06;100101.34;5067000;28;20447;-71
2023/05/03 00:36:11;;;;;;;6.97;2.42;;;;;;;14.21;59.16;100096.13;5076849;28;20025;-70
2023/05/03 00:38:37;;;;;;;5.75;2.00;;;;;;;14.17;59.32;100094.47;5065841;28;20036;-71
2023/05/03 00:41:03;;;;;;;8.00;2.13;;;;;;;14.15;59.07;100086.53;5067115;28;20401;-71
2023/05/03 00:43:29;;;;;;;8.15;2.28;;;;;;;14.12;59.27;100083.94;5056520;28;20016;-70
2023/05/03 00:45:55;;;;;;;7.63;1.77;;;;;;;14.09;59.15;100084.03;5056276;28;20035;-70
2023/05/03 00:48:20;;;;;;;7.63;1.70;;;;;;;14.05;59.43;100082.34;5056396;28;20061;-71
2023/05/03 00:50:47;;;;;;;7.45;1.70;;;;;;;13.98;59.34;100083.38;5042879;28;20090;-70
2023/05/03 00:53:13;;;;;;;4.82;1.35;;;;;;;13.90;59.62;100078.25;5039381;28;20052;-71
2023/05/03 00:55:39;;;;;;;6.23;2.00;;;;;;;13.84;59.72;100073.94;5074070;28;20108;-71
2023/05/03 00:58:05;;;;;;;6.15;2.15;;;;;;;13.74;59.70;100067.09;5067123;28;20035;-70
2023/05/03 01:00:31;;;;;;;5.70;2.10;;;;;;;13.70;60.38;100066.31;5066679;28;20072;-70
2023/05/03 01:02:56;;;;;;;7.85;1.73;;;;;;;13.66;60.45;100061.09;5056140;28;20025;-70
2023/05/03 01:05:22;;;;;;;4.97;1.87;;;;;;;13.59;60.60;100050.63;5072356;28;20032;-71
2023/05/03 01:08:00;;;;;;;4.57;1.60;;;;;;;13.54;60.75;100054.28;5058350;28;20025;-70
2023/05/03 01:10:40;;;;;;;5.55;1.58;;;;;;;13.49;61.03;100043.78;5071089;28;20025;-71
2023/05/03 01:13:41;;;;;;;6.25;1.58;;;;;;;13.46;61.03;100044.72;5060225;28;20570;-70
2023/05/03 01:16:30;;;;;;;5.55;1.60;;;;;;;13.44;61.11;100041.25;5072689;28;20028;-71
2023/05/03 01:19:00;;;;;;;5.00;1.40;;;;;;;13.44;60.65;100043.00;5050538;28;20041;-71
2023/05/03 01:21:27;;;;;;;5.37;1.67;;;;;;;13.44;60.58;100043.00;5080239;28;20029;-70
2023/05/03 01:24:20;;;;;;;4.88;1.50;;;;;;;13.41;60.79;100038.63;5053316;28;20139;-71
2023/05/03 01:26:46;;;;;;;6.50;1.70;;;;;;;13.35;60.65;100041.38;5059969;28;20088;-70
2023/05/03 01:29:11;;;;;;;6.13;1.87;;;;;;;13.19;60.85;100035.50;5060168;28;20458;-70
2023/05/03 01:31:54;;;;;;;4.87;1.40;;;;;;;13.05;61.17;100038.41;5059553;28;20021;-71
2023/05/03 01:34:30;;;;;;;4.22;1.38;;;;;;;12.99;62.12;100036.72;5075479;28;20040;-70
2023/05/03 01:36:58;;;;;;;5.80;1.33;;;;;;;13.01;61.37;100036.72;5076436;28;20033;-71
2023/05/03 01:39:31;;;;;;;5.65;1.40;;;;;;;13.02;61.30;100028.78;5060530;28;20112;-70
2023/05/03 01:41:58;;;;;;;6.97;1.38;;;;;;;13.05;61.23;100025.19;5050130;28;20057;-70
2023/05/03 01:44:24;;;;;;;6.27;1.33;;;;;;;13.06;61.12;100019.88;5041695;28;20032;-70
2023/05/03 01:46:49;;;;;;;5.65;1.40;;;;;;;13.06;61.01;100024.28;5041465;28;20025;-71
2023/05/03 01:49:15;;;;;;;5.47;1.27;;;;;;;13.04;61.06;100034.00;5041731;28;20029;-70
2023/05/03 01:51:40;;;;;;;5.18;1.30;;;;;;;13.00;61.05;100027.03;5066692;28;20021;-70
2023/05/03 01:54:06;;;;;;;4.20;1.10;;;;;;;12.95;61.59;100018.31;5078112;28;20040;-70
2023/05/03 01:56:33;;;;;;;3.95;1.15;;;;;;;12.93;61.13;100026.28;5061607;28;20508;-70
2023/05/03 01:58:59;;;;;;;4.70;1.47;;;;;;;12.89;61.14;100022.78;5079234;28;20091;-71
2023/05/03 02:01:24;;;;;;;6.85;1.80;;;;;;;12.84;61.11;100024.66;5062575;28;20053;-70
2023/05/03 02:03:50;;;;;;;4.97;1.40;;;;;;;12.77;61.40;100028.31;5062432;28;20024;-70
2023/05/03 02:06:15;;;;;;;5.20;1.20;;;;;;;12.72;61.86;100014.31;5061379;28;20024;-70
2023/05/03 02:08:41;;;;;;;4.20;1.40;;;;;;;12.72;61.85;100014.31;5079099;28;20259;-70
2023/05/03 02:11:06;;;;;;;5.30;1.57;;;;;;;12.69;62.06;100004.66;5067897;28;20017;-71
2023/05/03 02:13:31;;;;;;;5.83;1.50;;;;;;;12.67;62.19;100009.09;5059108;28;20485;-70
2023/05/03 02:15:57;;;;;;;4.57;1.53;;;;;;;12.64;62.19;100012.66;5068668;28;20024;-70
2023/05/03 02:18:23;;;;;;;5.15;1.50;;;;;;;12.62;62.21;100010.94;5045091;28;20029;-70
2023/05/03 02:20:48;;;;;;;4.90;1.40;;;;;;;12.60;62.26;100013.59;5059358;28;20035;-71
2023/05/03 02:23:14;;;;;;;8.50;1.50;;;;;;;12.58;62.11;100015.41;5058300;28;20489;-70
2023/05/03 02:25:40;;;;;;;4.90;1.70;;;;;;;12.57;62.31;100012.81;5059076;28;20759;-70
2023/05/03 02:28:06;;;;;;;5.20;1.50;;;;;;;12.53;62.35;100013.72;5059027;28;20182;-70
2023/05/03 02:30:32;;;;;;;5.00;1.50;;;;;;;12.42;62.84;100012.13;5058451;28;20064;-70
2023/05/03 02:32:57;;;;;;;6.13;1.70;;;;;;;12.28;63.35;100012.34;5044931;28;20098;-71
2023/05/03 02:35:23;;;;;;;7.97;1.60;;;;;;;12.20;63.35;100016.88;5078846;28;20028;-70
2023/05/03 02:37:48;;;;;;;6.07;1.70;;;;;;;12.11;63.86;100017.91;5067893;28;20117;-70
2023/05/03 02:40:14;;;;;;;5.73;1.70;;;;;;;12.10;63.86;100020.53;5048430;28;20032;-70
2023/05/03 02:42:39;;;;;;;5.13;1.55;;;;;;;12.10;63.83;100016.16;5042952;28;20029;-70
2023/05/03 02:45:05;;;;;;;5.30;1.60;;;;;;;12.08;63.52;100017.06;5058646;28;20025;-70
2023/05/03 02:47:31;;;;;;;7.15;1.52;;;;;;;12.05;64.06;100010.03;5073557;28;20423;-70
2023/05/03 02:49:56;;;;;;;4.60;1.40;;;;;;;12.05;63.73;100012.69;5078588;28;20039;-70
2023/05/03 02:52:22;;;;;;;4.17;1.30;;;;;;;12.06;63.60;100012.66;5061379;28;20017;-71
2023/05/03 02:54:48;;;;;;;6.37;1.50;;;;;;;12.09;63.55;100002.97;5040431;28;20049;-71
2023/05/03 02:57:14;;;;;;;4.88;1.35;;;;;;;12.10;63.53;100009.97;5058295;28;20032;-70
2023/05/03 02:59:39;;;;;;;5.35;1.20;;;;;;;12.11;63.48;100006.44;5042685;28;20049;-70
2023/05/03 03:02:05;;;;;;;5.00;1.30;;;;;;;12.11;62.97;100011.72;5077971;28;20025;-71
2023/05/03 03:04:30;;;;;;;5.33;1.50;;;;;;;12.06;63.21;100010.03;5060074;28;20032;-70
2023/05/03 03:06:56;;;;;;;5.47;1.20;;;;;;;12.05;62.79;100013.56;5060125;28;20024;-70
2023/05/03 03:09:21;;;;;;;5.00;1.30;;;;;;;12.02;63.01;100003.06;5078279;28;20108;-70
2023/05/03 03:11:47;;;;;;;4.97;1.40;;;;;;;12.00;63.15;100001.28;5061795;28;20111;-71
2023/05/03 03:14:12;;;;;;;6.65;1.45;;;;;;;11.99;63.00;100002.19;5058201;28;20060;-71
2023/05/03 03:16:38;;;;;;;5.53;1.67;;;;;;;11.95;63.00;99996.09;5073497;28;20024;-71
2023/05/03 03:19:03;;;;;;;5.40;1.60;;;;;;;11.93;63.11;99992.59;5057850;28;20404;-70
2023/05/03 03:21:28;;;;;;;4.53;1.40;;;;;;;11.89;63.09;99997.06;5057845;28;20043;-70
2023/05/03 03:23:55;;;;;;;5.28;1.50;;;;;;;11.86;62.87;99991.81;5058633;28;20412;-70
2023/05/03 03:26:20;;;;;;;5.60;1.60;;;;;;;11.83;63.10;99988.34;5057946;28;20025;-70
2023/05/03 03:28:46;;;;;;;6.77;1.30;;;;;;;11.81;62.92;99984.84;5039822;28;20404;-70
2023/05/03 03:31:11;;;;;;;5.90;1.70;;;;;;;11.78;62.88;99978.72;5057344;28;20024;-70
2023/05/03 03:33:37;;;;;;;5.70;1.40;;;;;;;11.75;62.74;99978.78;5066458;28;20031;-70
2023/05/03 03:36:05;;;;;;;4.15;1.30;;;;;;;11.71;63.04;99970.91;5077447;28;20023;-71
2023/05/03 03:38:30;;;;;;;7.43;1.30;;;;;;;11.67;63.12;99969.22;5060998;28;20031;-70
2023/05/03 03:40:56;;;;;;;5.28;1.20;;;;;;;11.65;62.87;99976.28;5067589;28;20025;-70
2023/05/03 03:43:21;;;;;;;5.20;1.50;;;;;;;11.61;63.27;99975.44;5051722;28;20712;-70
2023/05/03 03:45:47;;;;;;;5.30;1.67;;;;;;;11.58;63.08;99975.47;5077278;28;20475;-70
2023/05/03 03:48:12;;;;;;;4.07;1.27;;;;;;;11.55;62.79;99978.16;5077382;28;20023;-70
2023/05/03 03:50:37;;;;;;;6.17;1.40;;;;;;;11.48;62.71;99980.88;5056498;28;20046;-70
2023/05/03 03:53:03;;;;;;;5.03;1.63;;;;;;;11.41;62.94;99979.19;5057461;28;20028;-70
2023/05/03 03:55:29;;;;;;;4.97;1.17;;;;;;;11.35;62.93;99981.91;5039410;28;20059;-70
2023/05/03 03:57:54;;;;;;;3.65;1.10;;;;;;;11.28;63.04;99983.72;5064217;28;20388;-71
2023/05/03 04:00:20;;;;;;;6.00;1.50;;;;;;;11.26;62.94;99987.31;5044257;28;20083;-71
2023/05/03 04:02:45;;;;;;;5.80;1.57;;;;;;;11.22;63.12;99988.22;5038861;28;20036;-70
2023/05/03 04:05:11;;;;;;;4.60;1.37;;;;;;;11.20;63.21;99993.50;5057004;28;20266;-71
2023/05/03 04:07:36;;;;;;;6.43;1.47;;;;;;;11.17;62.86;99993.53;5057202;28;20441;-70
2023/05/03 04:10:01;;;;;;;6.93;1.63;;;;;;;11.11;63.22;99989.19;5068986;28;20031;-70
2023/05/03 04:12:27;;;;;;;3.50;1.10;;;;;;;11.06;63.60;99988.38;5039144;28;20028;-70
2023/05/03 04:14:53;;;;;;;5.32;1.23;;;;;;;11.02;62.91;99981.41;5038535;28;20035;-70
2023/05/03 04:17:19;;;;;;;5.00;1.30;;;;;;;11.00;63.41;99978.78;5072258;28;20047;-70
2023/05/03 04:19:45;;;;;;;4.83;1.30;;;;;;;10.99;62.98;99968.28;5056698;28;20452;-70
2023/05/03 04:22:11;;;;;;;4.88;1.55;;;;;;;10.95;63.59;99969.16;5056883;28;20059;-70
2023/05/03 04:24:38;;;;;;;6.00;1.60;;;;;;;10.93;62.89;99971.84;5057307;28;20025;-70
2023/05/03 04:27:04;;;;;;;5.95;1.60;;;;;;;10.89;63.33;99973.63;5056940;28;20553;-70
2023/05/03 04:29:29;;;;;;;6.53;1.90;;;;;;;10.85;63.34;99977.16;5056643;28;20472;-70
2023/05/03 04:31:55;;;;;;;6.05;1.92;;;;;;;10.82;63.34;99973.69;5038379;28;20080;-70
2023/05/03 04:34:21;;;;;;;5.67;1.43;;;;;;;10.79;63.77;99976.34;5072302;28;20446;-70
2023/05/03 04:36:46;;;;;;;6.18;1.30;;;;;;;10.79;63.35;99971.09;5076518;28;20036;-70
2023/05/03 04:39:11;;;;;;;5.43;1.40;;;;;;;10.79;63.89;99974.59;5069638;28;20031;-70
2023/05/03 04:41:39;;;;;;;6.07;1.50;;;;;;;10.81;63.38;99978.09;5067724;28;20052;-70
2023/05/03 04:44:04;;;;;;;5.72;1.83;;;;;;;10.81;63.39;99978.09;5056433;28;20084;-71
2023/05/03 04:46:30;;;;;;;7.50;1.30;;;;;;;10.81;63.17;99982.47;5056253;28;20497;-70
2023/05/03 04:48:56;;;;;;;5.13;1.33;;;;;;;10.80;63.84;99976.34;5038166;28;20033;-70
2023/05/03 04:51:22;;;;;;;4.78;1.35;;;;;;;10.79;63.60;99987.78;5061345;28;20020;-70
2023/05/03 04:53:48;;;;;;;6.07;1.55;;;;;;;10.75;63.72;99986.06;5056406;28;20036;-70
2023/05/03 04:56:13;;;;;;;8.17;1.47;;;;;;;10.71;63.29;99987.84;5058884;28;20029;-70
2023/05/03 04:58:39;;;;;;;6.93;1.40;;;;;;;10.68;63.54;99993.13;5061079;28;20041;-70
2023/05/03 05:01:05;;;;;;;5.60;1.57;;;;;;;10.63;63.43;99995.81;5061627;28;20029;-71
2023/05/03 05:03:31;;;;;;;6.28;1.20;;;;;;;10.61;63.75;99997.59;5055987;28;20021;-70
2023/05/03 05:05:56;;;;;;;5.00;1.20;;;;;;;10.63;63.50;99992.31;5056262;28;20083;-71
2023/05/03 05:08:22;;;;;;;7.30;1.20;;;;;;;10.67;63.58;99998.41;5056430;28;20025;-71
2023/05/03 05:10:47;;;;;;;3.53;1.00;;;;;;;10.70;63.38;100001.00;5067645;28;20025;-70
2023/05/03 05:13:13;;;;;;;5.20;1.27;;;;;;;10.71;63.05;99990.47;5038366;28;20024;-70
2023/05/03 05:15:38;;;;;;;4.63;1.33;;;;;;;10.72;63.33;99999.22;5060359;28;20495;-70
2023/05/03 05:18:04;;;;;;;5.17;1.10;;;;;;;10.73;62.89;100001.88;5065601;28;20029;-71
2023/05/03 05:20:29;;;;;;;5.35;1.58;;;;;;;10.77;63.25;99997.47;5056018;28;20052;-70
2023/05/03 05:22:55;;;;;;;4.17;1.20;;;;;;;10.83;62.55;99997.38;5057722;28;20056;-70
2023/05/03 05:25:20;;;;;;;6.47;1.67;;;;;;;10.89;62.82;100001.75;5067756;28;20532;-70
2023/05/03 05:27:45;;;;;;;4.43;1.40;;;;;;;10.88;62.84;100008.75;5038133;28;20029;-70
2023/05/03 05:30:11;;;;;;;5.23;1.50;;;;;;;10.87;62.76;100009.63;5038162;28;20052;-71
2023/05/03 05:32:37;;;;;;;7.82;1.38;;;;;;;10.91;62.73;100006.09;5056963;28;20029;-70
2023/05/03 05:35:02;;;;;;;5.40;1.53;;;;;;;10.99;62.98;100008.66;5075897;28;20059;-70
2023/05/03 05:37:28;;;;;;;4.63;1.50;;;;;;;11.22;62.94;100004.03;5075994;28;20115;-71
2023/05/03 05:39:54;;;;;;;5.03;1.63;;;;;;;11.59;61.48;100003.59;5076067;28;20344;-70
2023/05/03 05:42:19;;;;;;;5.10;1.80;;;;;;;12.00;60.76;100007.47;5062699;28;20056;-70
2023/05/03 05:44:45;;;;;;;5.23;1.80;;;;;;;12.40;60.20;100005.13;5068201;28;20032;-70
2023/05/03 05:47:11;;;;;;;7.43;1.70;;;;;;;12.73;59.39;100008.97;5055658;28;20025;-70
2023/05/03 05:49:36;;;;;;;5.90;1.43;;;;;;;13.02;58.85;100012.03;5056251;28;20088;-70
2023/05/03 05:52:02;;;;;;;7.60;1.93;;;;;;;13.20;58.44;100014.34;5060230;28;20028;-70
2023/05/03 05:54:27;;;;;;;6.50;1.90;;;;;;;13.22;58.68;100019.56;5055854;28;20495;-71
2023/05/03 05:56:53;;;;;;;5.93;1.70;;;;;;;13.32;58.55;100014.97;5063101;28;20024;-71
2023/05/03 05:59:18;;;;;;;8.03;2.20;;;;;;;13.47;58.56;100019.13;5059689;28;20099;-71
2023/05/03 06:01:45;;;;;;;7.43;1.80;;;;;;;13.59;58.30;100018.00;5046823;28;20024;-70
2023/05/03 06:04:14;;;;;;;8.02;1.90;;;;;;;13.75;58.28;100013.28;5059499;28;20104;-71
2023/05/03 06:06:40;;;;;;;5.57;1.80;;;;;;;13.86;58.02;100008.63;5059262;28;20404;-71
2023/05/03 06:09:07;;;;;;;6.15;2.00;;;;;;;13.97;58.06;100015.44;5065838;28;20055;-71
2023/05/03 06:11:33;;;;;;;7.10;2.00;;;;;;;14.10;57.75;100008.97;5065422;28;20504;-71
2023/05/03 06:13:58;;;;;;;4.60;1.80;;;;;;;14.29;57.77;100014.72;5059348;28;20132;-71
2023/05/03 06:16:25;;;;;;;6.70;1.90;;;;;;;14.42;57.54;100009.13;5074423;28;20032;-71
2023/05/03 06:18:50;;;;;;;9.18;2.10;;;;;;;14.52;57.28;100015.94;5059066;28;20013;-71
2023/05/03 06:21:16;;;;;;;5.93;1.93;;;;;;;14.56;57.16;100012.31;5041224;28;20044;-71
2023/05/03 06:23:42;;;;;;;5.68;2.15;;;;;;;14.65;57.34;100008.56;5059942;28;20512;-71
2023/05/03 06:26:07;;;;;;;8.87;2.00;;;;;;;14.61;57.92;100007.78;5059107;28;20103;-72
2023/05/03 06:28:33;;;;;;;6.15;1.92;;;;;;;14.50;58.43;100009.81;5059059;28;20392;-72
2023/05/03 06:30:59;;;;;;;8.60;2.10;;;;;;;14.53;58.46;100007.06;5061278;28;20033;-71
2023/05/03 06:33:25;;;;;;;8.87;1.93;;;;;;;14.58;58.21;100007.81;5078604;28;20036;-71
2023/05/03 06:35:50;;;;;;;9.95;2.30;;;;;;;14.68;58.42;100010.28;5079087;28;20100;-72
2023/05/03 06:38:16;;;;;;;6.03;1.97;;;;;;;14.78;58.13;100006.50;5078899;28;20111;-71
2023/05/03 06:40:44;;;;;;;6.05;2.10;;;;;;;14.95;57.95;100002.53;5077691;28;20024;-72
2023/05/03 06:43:09;;;;;;;7.80;2.10;;;;;;;14.96;57.81;99996.31;5040834;28;20033;-72
2023/05/03 06:45:35;;;;;;;6.27;1.97;;;;;;;14.89;58.25;99999.16;5058520;28;20447;-72
2023/05/03 06:48:00;;;;;;;8.33;2.20;;;;;;;14.80;58.79;99999.38;5058638;28;20268;-72
2023/05/03 06:50:26;;;;;;;8.70;1.80;;;;;;;14.91;58.78;99997.31;5063093;28;20032;-72
2023/05/03 06:52:53;;;;;;;6.27;1.90;;;;;;;15.07;58.24;99992.47;5058626;28;20032;-72
2023/05/03 06:55:18;;;;;;;6.60;2.00;;;;;;;15.23;58.14;99985.88;5058518;28;20279;-72
2023/05/03 06:57:46;;;;;;;7.28;1.80;;;;;;;15.36;57.53;99989.94;5065698;28;20410;-72
2023/05/03 07:00:12;;;;;;;7.60;1.97;;;;;;;15.55;57.74;99986.72;5063583;28;20048;-72
2023/05/03 07:02:37;;;;;;;7.72;1.80;;;;;;;15.73;57.36;99983.53;5058159;28;20031;-72
2023/05/03 07:05:03;;;;;;;6.70;1.93;;;;;;;15.91;57.12;99983.94;5058256;28;20094;-72
2023/05/03 07:07:28;;;;;;;6.47;1.85;;;;;;;16.10;56.57;99978.06;5058393;28;20067;-73
2023/05/03 07:09:54;;;;;;;7.03;1.90;;;;;;;16.39;56.62;99984.22;5069917;28;20032;-73
2023/05/03 07:12:19;;;;;;;5.03;1.70;;;;;;;16.56;56.00;99987.19;5058278;28;20049;-73
2023/05/03 07:14:45;;;;;;;6.30;1.70;;;;;;;16.76;55.60;99978.53;5058000;28;20383;-73
2023/05/03 07:17:10;;;;;;;7.50;1.80;;;;;;;16.93;55.19;99980.59;5072254;28;20267;-73
2023/05/03 07:19:36;;;;;;;6.47;1.73;;;;;;;16.99;55.27;99973.34;5058137;28;20045;-74
2023/05/03 07:22:02;;;;;;;7.80;1.73;;;;;;;17.01;55.19;99972.38;5058027;28;20013;-73
2023/05/03 07:24:27;;;;;;;7.55;2.00;;;;;;;17.15;54.90;99977.22;5071249;28;20025;-74
2023/05/03 07:26:53;;;;;;;10.03;2.30;;;;;;;17.14;54.86;99971.97;5058090;28;20025;-73
2023/05/03 07:29:18;;;;;;;5.97;1.87;;;;;;;17.18;54.80;99966.44;5077987;28;20021;-74
2023/05/03 07:31:44;;;;;;;8.50;1.70;;;;;;;17.41;54.63;99962.06;5065009;28;20028;-73
2023/05/03 07:34:10;;;;;;;6.33;1.47;;;;;;;17.72;54.10;99962.72;5071290;28;20036;-74
2023/05/03 07:36:36;;;;;;;6.03;1.63;;;;;;;17.94;53.46;99960.06;5057761;28;20017;-74
2023/05/03 07:39:03;;;;;;;6.82;1.88;;;;;;;18.08;53.48;99949.75;5040469;28;20029;-73
2023/05/03 07:41:29;;;;;;;6.03;1.90;;;;;;;18.37;52.96;99960.16;5077952;28;20373;-74
2023/05/03 07:43:54;;;;;;;5.47;1.70;;;;;;;18.57;52.59;99954.00;5045764;28;20017;-73
2023/05/03 07:46:20;;;;;;;7.33;2.00;;;;;;;18.86;52.22;99951.00;5057546;28;20058;-74
2023/05/03 07:48:45;;;;;;;5.82;1.90;;;;;;;19.16;51.53;99946.13;5057282;28;20116;-74
2023/05/03 07:51:11;;;;;;;6.20;1.60;;;;;;;19.43;51.58;99940.47;5062163;28;20035;-74
2023/05/03 07:53:38;;;;;;;6.97;1.80;;;;;;;19.71;50.52;99946.31;5057119;28;20059;-74
2023/05/03 07:56:04;;;;;;;6.50;1.88;;;;;;;19.88;50.25;99945.50;5058502;28;20485;-74
2023/05/03 07:58:30;;;;;;;7.57;2.00;;;;;;;19.99;50.25;99937.00;5077214;28;20028;-74
2023/05/03 08:00:55;;;;;;;6.88;1.50;;;;;;;20.13;50.28;99933.66;5064975;28;20029;-74
2023/05/03 08:03:22;;;;;;;8.73;1.80;;;;;;;20.26;49.21;99934.78;5057591;28;20080;-73
2023/05/03 08:05:47;;;;;;;7.70;1.80;;;;;;;20.33;49.13;99919.31;5039877;28;20112;-73
2023/05/03 08:08:14;;;;;;;5.80;1.70;;;;;;;20.42;49.43;99926.84;5057474;28;20493;-74
2023/05/03 08:10:40;;;;;;;5.57;1.90;;;;;;;20.58;48.97;99920.72;5068368;28;20393;-75
2023/05/03 08:13:06;;;;;;;4.63;1.50;;;;;;;20.73;48.14;99916.41;5057232;28;20037;-76
2023/05/03 08:15:32;;;;;;;4.38;1.60;;;;;;;20.90;48.01;99918.22;5041502;28;20021;-75
2023/05/03 08:17:57;;;;;;;5.90;1.48;;;;;;;21.12;47.72;99914.41;5067742;28;20704;-75
2023/05/03 08:20:22;;;;;;;4.67;1.50;;;;;;;21.25;46.92;99909.25;5056764;28;20105;-75
2023/05/03 08:22:48;;;;;;;3.80;1.40;;;;;;;21.35;45.92;99908.66;5057591;28;20025;-75
2023/05/03 08:25:16;;;;;;;5.73;1.40;;;;;;;21.43;44.81;99905.56;5076766;28;20295;-74
2023/05/03 08:27:42;;;;;;;4.68;1.50;;;;;;;21.42;44.35;99903.84;5077024;28;20020;-75
2023/05/03 08:30:08;;;;;;;5.17;1.90;;;;;;;21.40;44.32;99911.09;5076993;28;20085;-75
2023/05/03 08:32:33;;;;;;;5.20;1.98;;;;;;;21.34;44.27;99900.69;5058066;28;20075;-74
2023/05/03 08:34:59;;;;;;;4.70;1.80;;;;;;;21.29;42.99;99897.41;5058352;28;20156;-74
2023/05/03 08:37:24;;;;;;;5.00;1.47;;;;;;;21.28;42.90;99907.28;5056835;28;20059;-75
2023/05/03 08:39:50;;;;;;;4.63;1.80;;;;;;;21.25;43.18;99901.22;5060969;28;20027;-76
2023/05/03 08:42:16;;;;;;;4.70;1.45;;;;;;;21.45;43.18;99900.97;5062781;28;20032;-77
2023/05/03 08:44:47;;;;;;;5.15;1.60;;;;;;;21.57;42.42;99901.22;5056806;28;20025;-76
2023/05/03 08:47:15;;;;;;;4.80;1.60;;;;;;;21.73;42.24;99895.94;5056405;28;20124;-76
2023/05/03 08:49:41;;;;;;;4.28;1.60;;;;;;;21.77;41.12;99892.97;5038849;28;20020;-76
2023/05/03 08:52:09;;;;;;;5.20;1.40;;;;;;;21.86;41.33;99888.06;5043565;28;20033;-76
2023/05/03 08:54:35;;;;;;;4.43;1.40;;;;;;;22.06;40.65;99886.88;5038438;28;20052;-76
2023/05/03 08:57:00;;;;;;;6.27;1.47;;;;;;;22.21;39.66;99885.13;5063499;28;20029;-74
2023/05/03 08:59:28;;;;;;;5.47;1.38;;;;;;;22.31;39.95;99880.97;5056876;28;20049;-75
2023/05/03 09:01:53;;;;;;;5.00;1.45;;;;;;;22.46;39.73;99889.94;5061425;28;20040;-76
2023/05/03 09:04:19;;;;;;;5.10;1.37;;;;;;;22.62;38.99;99883.63;5057661;28;20021;-76
2023/05/03 09:06:44;;;;;;;3.70;1.13;;;;;;;22.65;38.70;99878.94;5056633;28;20031;-77
2023/05/03 09:09:10;;;;;;;4.57;1.60;;;;;;;22.78;38.06;99878.19;5045497;28;20422;-75
2023/05/03 09:11:37;;;;;;;5.93;1.53;;;;;;;22.84;38.43;99888.56;5042999;28;20774;-77
2023/05/03 09:14:17;;;;;;;6.28;1.45;;;;;;;22.90;37.68;99880.13;5038542;28;20413;-77
2023/05/03 09:16:44;;;;;;;5.00;1.47;;;;;;;22.96;36.54;99878.00;5070121;28;20025;-76
2023/05/03 09:19:11;;;;;;;4.22;1.40;;;;;;;23.14;37.21;99874.19;5056571;28;20461;-77
2023/05/03 09:21:38;;;;;;;6.90;1.30;;;;;;;23.17;37.00;99868.59;5074629;28;20029;-76
2023/05/03 09:24:20;;;;;;;6.35;1.45;;;;;;;23.38;36.64;99868.22;5065306;28;20025;-76
2023/05/03 09:26:47;;;;;;;5.72;1.27;;;;;;;23.51;35.29;99871.00;5056116;28;20057;-76
2023/05/03 09:29:35;;;;;;;4.30;1.43;;;;;;;23.50;35.04;99870.09;5056267;28;20086;-76
2023/05/03 09:32:04;;;;;;;4.70;1.50;;;;;;;23.51;34.66;99866.50;5056340;28;20381;-75
2023/05/03 09:34:30;;;;;;;9.63;1.80;;;;;;;23.47;34.90;99866.78;5073336;28;20032;-74
2023/05/03 09:36:56;;;;;;;3.70;1.27;;;;;;;23.61;34.71;99871.25;5060427;28;20685;-77
2023/05/03 09:39:22;;;;;;;4.63;1.25;;;;;;;23.69;34.58;99863.53;5060542;28;20048;-77
2023/05/03 09:41:48;;;;;;;3.60;1.20;;;;;;;23.75;34.49;99863.16;5079888;28;20025;-76
2023/05/03 09:44:13;;;;;;;3.80;1.40;;;;;;;23.76;33.32;99870.25;5062848;28;20013;-74
2023/05/03 09:46:59;;;;;;;4.23;1.77;;;;;;;23.76;33.22;99872.94;5059664;28;20108;-75
2023/05/03 09:49:24;;;;;;;6.50;1.38;;;;;;;23.73;32.92;99865.06;5059630;28;20021;-74
2023/05/03 09:51:50;;;;;;;6.60;1.63;;;;;;;23.68;32.77;99869.88;5064044;28;20037;-74
2023/05/03 09:54:15;;;;;;;6.87;1.60;;;;;;;23.84;33.43;99871.56;5041878;28;20116;-74
2023/05/03 09:56:43;;;;;;;5.63;1.52;;;;;;;23.94;32.74;99868.19;5065732;28;20023;-74
2023/05/03 09:59:09;;;;;;;3.50;1.37;;;;;;;24.06;33.09;99865.66;5058233;28;20040;-75
2023/05/03 10:01:34;;;;;;;5.38;1.70;;;;;;;24.18;32.76;99866.66;5041416;28;20512;-75
2023/05/03 10:04:02;;;;;;;5.43;1.40;;;;;;;24.36;32.48;99856.47;5039449;28;20032;-74
2023/05/03 10:06:35;;;;;;;4.68;1.50;;;;;;;24.54;32.42;99859.72;5039603;28;20013;-75
2023/05/03 10:09:23;;;;;;;4.07;1.50;;;;;;;24.57;32.09;99859.50;5045097;28;20025;-74
2023/05/03 10:11:53;;;;;;;5.35;1.60;;;;;;;24.70;31.39;99867.59;5041971;28;20048;-75
2023/05/03 10:14:20;;;;;;;4.07;1.42;;;;;;;24.60;30.74;99864.69;5038172;28;20025;-74
2023/05/03 10:16:52;;;;;;;5.53;1.60;;;;;;;24.70;30.75;99859.50;5052348;28;20409;-74
2023/05/03 10:19:31;;;;;;;5.50;1.50;;;;;;;24.78;31.48;99864.41;5059422;28;20025;-74
2023/05/03 10:22:08;;;;;;;7.72;1.90;;;;;;;24.98;30.26;99864.81;5059306;28;20481;-74
2023/05/03 10:24:58;;;;;;;5.05;1.77;;;;;;;25.04;30.63;99850.91;5042654;28;20044;-74
2023/05/03 10:27:25;;;;;;;5.07;1.60;;;;;;;25.05;30.32;99848.09;5039212;28;20029;-75
2023/05/03 10:29:50;;;;;;;6.27;1.53;;;;;;;25.16;29.57;99852.72;5039228;28;20089;-74
2023/05/03 10:32:32;;;;;;;4.35;1.85;;;;;;;25.06;29.78;99849.81;5038716;28;20548;-74
2023/05/03 10:35:08;;;;;;;3.63;1.40;;;;;;;25.12;28.96;99848.53;5049554;28;20026;-74
2023/05/03 10:37:35;;;;;;;6.20;2.08;;;;;;;25.16;30.15;99850.00;5038955;28;20052;-74
2023/05/03 10:40:13;;;;;;;7.60;2.28;;;;;;;25.16;29.50;99844.63;5044784;28;20451;-75
2023/05/03 10:42:43;;;;;;;6.47;2.13;;;;;;;25.28;29.82;99845.56;5040950;28;20497;-76
2023/05/03 10:45:18;;;;;;;7.50;2.63;;;;;;;25.36;29.31;99836.94;5038772;28;20076;-75
2023/05/03 10:47:43;;;;;;;8.77;3.20;;;;;;;25.46;29.07;99832.59;5038733;28;20025;-75
2023/05/03 10:50:14;;;;;;;10.27;3.10;;;;;;;25.58;28.49;99833.56;5042074;28;20497;-74
2023/05/03 10:52:40;;;;;;;7.78;2.58;;;;;;;25.78;28.57;99826.66;5038712;28;20021;-75
2023/05/03 10:55:09;;;;;;;8.43;1.73;;;;;;;25.87;28.49;99817.03;5037418;28;20035;-75
2023/05/03 10:57:37;;;;;;;6.72;1.60;;;;;;;26.05;28.33;99819.31;5052070;28;20044;-74
2023/05/03 11:00:15;;;;;;;5.43;1.50;;;;;;;26.07;28.65;99811.97;5067757;28;20039;-74
2023/05/03 11:03:11;;;;;;;8.13;1.90;;;;;;;26.15;29.35;99806.81;5058322;28;20021;-76
2023/05/03 11:05:37;;;;;;;5.77;1.60;;;;;;;26.32;28.76;99810.94;5058413;28;20032;-75
2023/05/03 11:08:15;;;;;;;7.22;1.30;;;;;;;26.42;27.75;99807.53;5058565;28;20025;-74
2023/05/03 11:10:43;;;;;;;3.78;1.33;;;;;;;26.62;28.11;99806.81;5069324;28;20021;-76
2023/05/03 11:13:08;;;;;;;5.13;1.50;;;;;;;26.70;28.36;99808.06;5068449;28;20028;-75
2023/05/03 11:15:34;;;;;;;4.50;1.60;;;;;;;26.57;28.42;99792.81;5061634;28;20574;-76
2023/05/03 11:18:00;;;;;;;6.35;1.63;;;;;;;26.78;28.10;99792.09;5066967;28;20048;-74
2023/05/03 11:20:25;;;;;;;10.40;1.77;;;;;;;26.70;28.62;99791.84;5058210;28;20473;-74
2023/05/03 11:22:51;;;;;;;4.20;1.50;;;;;;;26.84;28.54;99788.88;5058996;28;20025;-75
2023/05/03 11:25:17;;;;;;;5.43;1.30;;;;;;;26.77;27.41;99799.34;5051220;28;20389;-75
2023/05/03 11:27:45;;;;;;;5.13;1.45;;;;;;;26.97;27.57;99796.06;5057951;28;20481;-75
2023/05/03 11:30:11;;;;;;;4.63;1.20;;;;;;;27.03;27.52;99784.75;5057979;28;20092;-75